Terminal Aerodrome Forecast
Issued by NWS

Home | Current Version | Previous Version | Text Only | Print | Product List | Glossary On
Versions: 1 2 3 4 5 6 7 8 9 10 11 12 13 14 15 16 17 18 19 20 21 22 23 24 25 26 27 28 29 30
000
FTUS43 KOAX 162320
TAFSNY
TAF
KSNY 162320Z 1700/1724 10015KT P6SM VCTS SCT050CB BKN100
      TEMPO 1701/1703 VRB20G40KT 3SM TSRA BKN020CB
     FM170300 12010KT P6SM SCT015 BKN040
     FM170800 18005KT 5SM BR OVC008
     FM171500 14008KT P6SM SCT007 BKN020
     FM172000 13010KT P6SM VCTS BKN040CB BKN100=

USA.gov is the U.S. government's official web portal to all federal, state and local government web resources and services.